createdAt,value
2023-02-03T00:02:00.004Z,98311.00
2023-02-03T00:04:26.279Z,98308.00
2023-02-03T00:06:52.560Z,98292.00
2023-02-03T00:09:20.120Z,98308.00
2023-02-03T00:11:46.493Z,98290.00
2023-02-03T00:14:12.665Z,98280.00
2023-02-03T00:16:38.921Z,98289.00
2023-02-03T00:19:05.134Z,98271.00
2023-02-03T00:21:31.337Z,98297.00
2023-02-03T00:23:57.575Z,98269.00
2023-02-03T00:26:25.225Z,98244.00
2023-02-03T00:28:51.393Z,98260.00
2023-02-03T00:31:23.682Z,98256.00
2023-02-03T00:33:56.262Z,98248.00
2023-02-03T00:36:24.025Z,98255.00
2023-02-03T00:38:50.360Z,98254.00
2023-02-03T00:41:17.346Z,98238.00
2023-02-03T00:43:43.720Z,98242.00
2023-02-03T00:46:10.110Z,98220.00
2023-02-03T00:48:36.312Z,98253.00
2023-02-03T00:51:02.588Z,98282.00
2023-02-03T00:53:28.860Z,98247.00
2023-02-03T00:55:55.188Z,98254.00
2023-02-03T00:58:21.933Z,98233.00
2023-02-03T01:00:48.153Z,98248.00
2023-02-03T01:03:15.865Z,98251.00
2023-02-03T01:05:42.003Z,98250.00
2023-02-03T01:08:08.139Z,98237.00
2023-02-03T01:10:37.132Z,98254.00
2023-02-03T01:13:03.573Z,98241.00
2023-02-03T01:15:29.828Z,98232.00
2023-02-03T01:17:57.089Z,98219.00
2023-02-03T01:20:23.468Z,98243.00
2023-02-03T01:22:50.381Z,98252.00
2023-02-03T01:25:16.658Z,98248.00
2023-02-03T01:27:42.894Z,98249.00
2023-02-03T01:30:10.305Z,98263.00
2023-02-03T01:32:36.449Z,98267.00
2023-02-03T01:35:04.454Z,98278.00
2023-02-03T01:37:30.766Z,98272.00
2023-02-03T01:39:57.110Z,98271.00
2023-02-03T01:42:23.315Z,98278.00
2023-02-03T01:44:51.384Z,98288.00
2023-02-03T01:47:29.124Z,98275.00
2023-02-03T01:50:02.065Z,98269.00
2023-02-03T01:52:30.722Z,98270.00
2023-02-03T01:55:01.044Z,98257.00
2023-02-03T01:57:39.494Z,98266.00
2023-02-03T02:00:08.735Z,98281.00
2023-02-03T02:02:45.195Z,98234.00
2023-02-03T02:05:24.385Z,98282.00
2023-02-03T02:07:50.851Z,98225.00
2023-02-03T02:10:17.400Z,98293.00
2023-02-03T02:12:43.915Z,98283.00
2023-02-03T02:15:11.215Z,98232.00
2023-02-03T02:18:14.164Z,98249.00
2023-02-03T02:20:58.872Z,98265.00
2023-02-03T02:24:11.015Z,98265.00
2023-02-03T02:27:20.845Z,98269.00
2023-02-03T02:30:14.506Z,98279.00
2023-02-03T02:32:55.612Z,98273.00
2023-02-03T02:35:56.649Z,98278.00
2023-02-03T02:38:37.142Z,98248.00
2023-02-03T02:41:20.847Z,98254.00
2023-02-03T02:44:03.147Z,98250.00
2023-02-03T02:46:47.847Z,98235.00
2023-02-03T02:49:37.213Z,98249.00
2023-02-03T02:52:07.930Z,98234.00
2023-02-03T02:54:39.985Z,98216.00
2023-02-03T02:57:12.282Z,98202.00
2023-02-03T02:59:38.721Z,98175.00
2023-02-03T03:02:04.952Z,98217.00
2023-02-03T03:04:34.710Z,98223.00
2023-02-03T03:07:08.982Z,98232.00
2023-02-03T03:09:55.134Z,98181.00
2023-02-03T03:12:30.503Z,98231.00
2023-02-03T03:15:14.990Z,98219.00
2023-02-03T03:17:53.585Z,98216.00
2023-02-03T03:20:26.150Z,98188.00
2023-02-03T03:23:02.781Z,98169.00
2023-02-03T03:25:43.009Z,98162.00
2023-02-03T03:28:18.373Z,98203.00
2023-02-03T03:30:44.670Z,98213.00
2023-02-03T03:33:10.953Z,98230.00
2023-02-03T03:36:17.377Z,98258.00
2023-02-03T03:39:24.030Z,98269.00
2023-02-03T03:42:07.011Z,98280.00
2023-02-03T03:44:43.809Z,98285.00
2023-02-03T03:47:56.518Z,98257.00
2023-02-03T03:50:33.259Z,98237.00
2023-02-03T03:53:03.680Z,98245.00
2023-02-03T03:55:34.454Z,98238.00
2023-02-03T03:58:29.019Z,98235.00
2023-02-03T04:01:00.580Z,98242.00
2023-02-03T04:03:43.994Z,98224.00
2023-02-03T04:06:11.467Z,98250.00
2023-02-03T04:08:38.647Z,98221.00
2023-02-03T04:11:05.763Z,98238.00
2023-02-03T04:13:32.305Z,98238.00
2023-02-03T04:15:58.677Z,98218.00
2023-02-03T04:18:24.857Z,98222.00
2023-02-03T04:20:51.044Z,98227.00
2023-02-03T04:23:17.213Z,98210.00
2023-02-03T04:25:43.436Z,98221.00
2023-02-03T04:28:09.771Z,98202.00
2023-02-03T04:30:36.125Z,98224.00
2023-02-03T04:33:02.498Z,98225.00
2023-02-03T04:35:28.751Z,98215.00
2023-02-03T04:37:54.979Z,98212.00
2023-02-03T04:40:21.204Z,98207.00
2023-02-03T04:42:47.394Z,98211.00
2023-02-03T04:45:13.577Z,98191.00
2023-02-03T04:47:39.758Z,98191.00
2023-02-03T04:50:06.786Z,98198.00
2023-02-03T04:52:32.960Z,98194.00
2023-02-03T04:54:59.376Z,98171.00
2023-02-03T04:57:25.649Z,98199.00
2023-02-03T04:59:51.838Z,98201.00
2023-02-03T05:02:18.016Z,98207.00
2023-02-03T05:04:44.225Z,98213.00
2023-02-03T05:07:10.818Z,98203.00
2023-02-03T05:09:37.131Z,98206.00
2023-02-03T05:12:03.507Z,98198.00
2023-02-03T05:14:29.699Z,98182.00
2023-02-03T05:16:55.993Z,98197.00
2023-02-03T05:19:22.170Z,98185.00
2023-02-03T05:21:48.388Z,98197.00
2023-02-03T05:24:14.593Z,98187.00
2023-02-03T05:26:40.918Z,98188.00
2023-02-03T05:29:07.248Z,98172.00
2023-02-03T05:31:33.990Z,98194.00
2023-02-03T05:34:00.293Z,98191.00
2023-02-03T05:36:26.467Z,98176.00
2023-02-03T05:38:52.677Z,98174.00
2023-02-03T05:41:37.740Z,98167.00
2023-02-03T05:44:04.126Z,98187.00
2023-02-03T05:46:30.421Z,98177.00
2023-02-03T05:48:56.647Z,98186.00
2023-02-03T05:51:24.280Z,98194.00
2023-02-03T05:53:50.573Z,98192.00
2023-02-03T05:56:16.733Z,98197.00
2023-02-03T05:58:42.904Z,98202.00
2023-02-03T06:01:10.930Z,98185.00
2023-02-03T06:03:37.268Z,98181.00
2023-02-03T06:06:03.667Z,98197.00
2023-02-03T06:08:29.883Z,98191.00
2023-02-03T06:10:59.930Z,98192.00
2023-02-03T06:13:26.671Z,98193.00
2023-02-03T06:15:53.227Z,98183.00
2023-02-03T06:18:20.758Z,98204.00
2023-02-03T06:20:47.304Z,98191.00
2023-02-03T06:23:13.542Z,98197.00
2023-02-03T06:25:39.729Z,98197.00
2023-02-03T06:28:05.929Z,98199.00
2023-02-03T06:30:32.206Z,98212.00
2023-02-03T06:32:58.473Z,98225.00
2023-02-03T06:35:24.778Z,98215.00
2023-02-03T06:37:51.137Z,98204.00
2023-02-03T06:40:17.675Z,98231.00
2023-02-03T06:42:47.824Z,98210.00
2023-02-03T06:45:14.955Z,98202.00
2023-02-03T06:47:42.900Z,98200.00
2023-02-03T06:50:13.041Z,98201.00
2023-02-03T06:52:39.532Z,98202.00
2023-02-03T06:55:06.681Z,98187.00
2023-02-03T06:57:33.356Z,98204.00
2023-02-03T06:59:59.525Z,98202.00
2023-02-03T07:02:25.842Z,98221.00
2023-02-03T07:04:52.102Z,98201.00
2023-02-03T07:07:18.406Z,98197.00
2023-02-03T07:09:44.560Z,98211.00
2023-02-03T07:12:10.958Z,98221.00
2023-02-03T07:14:38.652Z,98203.00
2023-02-03T07:17:06.203Z,98211.00
2023-02-03T07:19:32.373Z,98220.00
2023-02-03T07:21:58.569Z,98228.00
2023-02-03T07:24:24.840Z,98211.00
2023-02-03T07:26:52.338Z,98228.00
2023-02-03T07:29:18.715Z,98225.00
2023-02-03T07:31:45.045Z,98196.00
2023-02-03T07:34:11.421Z,98193.00
2023-02-03T07:36:37.632Z,98195.00
2023-02-03T07:39:04.005Z,98190.00
2023-02-03T07:41:30.393Z,98216.00
2023-02-03T07:43:56.621Z,98190.00
2023-02-03T07:46:23.049Z,98184.00
2023-02-03T07:48:49.280Z,98194.00
2023-02-03T07:51:15.563Z,98190.00
2023-02-03T07:53:41.888Z,98188.00
2023-02-03T07:56:08.426Z,98188.00
2023-02-03T07:58:34.657Z,98209.00
2023-02-03T08:01:01.001Z,98193.00
2023-02-03T08:03:27.276Z,98174.00
2023-02-03T08:05:53.444Z,98202.00
2023-02-03T08:08:20.028Z,98202.00
2023-02-03T08:10:46.595Z,98193.00
2023-02-03T08:13:12.983Z,98151.00
2023-02-03T08:15:39.186Z,98193.00
2023-02-03T08:18:08.037Z,98198.00
2023-02-03T08:20:34.740Z,98192.00
2023-02-03T08:23:01.191Z,98207.00
2023-02-03T08:25:27.793Z,98201.00
2023-02-03T08:27:54.030Z,98210.00
2023-02-03T08:30:21.335Z,98245.00
2023-02-03T08:32:47.724Z,98207.00
2023-02-03T08:35:14.239Z,98220.00
2023-02-03T08:37:41.012Z,98220.00
2023-02-03T08:40:12.549Z,98210.00
2023-02-03T08:42:38.853Z,98198.00
2023-02-03T08:45:06.531Z,98182.00
2023-02-03T08:47:33.067Z,98225.00
2023-02-03T08:49:59.292Z,98196.00
2023-02-03T08:52:25.760Z,98204.00
2023-02-03T08:54:52.010Z,98185.00
2023-02-03T08:57:20.014Z,98181.00
2023-02-03T08:59:50.446Z,98209.00
2023-02-03T09:02:19.176Z,98221.00
2023-02-03T09:04:46.860Z,98206.00
2023-02-03T09:07:13.210Z,98214.00
2023-02-03T09:09:39.932Z,98210.00
2023-02-03T09:12:07.952Z,98223.00
2023-02-03T09:14:35.444Z,98207.00
2023-02-03T09:17:04.300Z,98195.00
2023-02-03T09:19:31.291Z,98241.00
2023-02-03T09:21:57.653Z,98215.00
2023-02-03T09:24:24.469Z,98219.00
2023-02-03T09:26:50.881Z,98205.00
2023-02-03T09:29:17.715Z,98205.00
2023-02-03T09:31:46.215Z,98232.00
2023-02-03T09:34:12.587Z,98205.00
2023-02-03T09:36:39.711Z,98221.00
2023-02-03T09:39:06.655Z,98209.00
2023-02-03T09:42:12.908Z,98206.00
2023-02-03T09:45:05.135Z,98212.00
2023-02-03T09:47:40.724Z,98206.00
2023-02-03T09:50:17.367Z,98203.00
2023-02-03T09:52:43.664Z,98203.00
2023-02-03T09:55:31.246Z,98195.00
2023-02-03T09:58:22.204Z,98216.00
2023-02-03T10:00:53.609Z,98207.00
2023-02-03T10:03:38.900Z,98207.00
2023-02-03T10:06:41.083Z,98204.00
2023-02-03T10:09:33.588Z,98214.00
2023-02-03T10:12:37.561Z,98217.00
2023-02-03T10:15:34.865Z,98213.00
2023-02-03T10:18:51.153Z,98208.00
2023-02-03T10:21:51.938Z,98174.00
2023-02-03T10:24:44.383Z,98217.00
2023-02-03T10:27:20.761Z,98155.00
2023-02-03T10:30:02.561Z,98184.00
2023-02-03T10:32:29.618Z,98207.00
2023-02-03T10:34:56.284Z,98215.00
2023-02-03T10:37:36.341Z,98217.00
2023-02-03T10:40:03.913Z,98217.00
2023-02-03T10:42:52.442Z,98187.00
2023-02-03T10:45:20.155Z,98217.00
2023-02-03T10:47:55.680Z,98213.00
2023-02-03T10:50:31.165Z,98230.00
2023-02-03T10:53:31.132Z,98240.00
2023-02-03T10:56:12.454Z,98225.00
2023-02-03T10:58:47.856Z,98217.00
2023-02-03T11:01:19.120Z,98236.00
2023-02-03T11:04:03.195Z,98233.00
2023-02-03T11:06:33.499Z,98216.00
2023-02-03T11:09:00.003Z,98230.00
2023-02-03T11:11:39.998Z,98236.00
2023-02-03T11:14:06.136Z,98223.00
2023-02-03T11:16:37.840Z,98242.00
2023-02-03T11:19:16.878Z,98228.00
2023-02-03T11:21:50.641Z,98233.00
2023-02-03T11:24:26.914Z,98210.00
2023-02-03T11:26:53.353Z,98198.00
2023-02-03T11:29:30.629Z,98199.00
2023-02-03T11:32:01.512Z,98187.00
2023-02-03T11:34:37.198Z,98197.00
2023-02-03T11:37:34.027Z,98204.00
2023-02-03T11:40:06.399Z,98208.00
2023-02-03T11:42:41.671Z,98205.00
2023-02-03T11:45:18.031Z,98220.00
2023-02-03T11:47:53.215Z,98217.00
2023-02-03T11:50:33.295Z,98230.00
2023-02-03T11:53:28.300Z,98211.00
2023-02-03T11:56:12.634Z,98232.00
2023-02-03T11:58:59.941Z,98222.00
2023-02-03T12:01:44.887Z,98202.00
2023-02-03T12:04:52.731Z,98226.00
2023-02-03T12:07:45.366Z,98225.00
2023-02-03T12:10:50.618Z,98195.00
2023-02-03T12:13:49.952Z,98220.00
2023-02-03T12:16:55.442Z,98201.00
2023-02-03T12:20:02.523Z,98201.00
2023-02-03T12:23:29.841Z,98204.00
2023-02-03T12:26:14.032Z,98192.00
2023-02-03T12:29:12.509Z,98193.00
2023-02-03T12:32:12.782Z,98188.00
2023-02-03T12:35:18.048Z,98208.00
2023-02-03T12:38:16.251Z,98207.00
2023-02-03T12:40:55.041Z,98182.00
2023-02-03T12:43:39.140Z,98190.00
2023-02-03T12:46:29.462Z,98204.00
2023-02-03T12:49:27.433Z,98194.00
2023-02-03T12:52:42.874Z,98190.00
2023-02-03T12:55:33.916Z,98205.00
2023-02-03T12:58:34.790Z,98194.00
2023-02-03T13:01:27.579Z,98214.00
2023-02-03T13:04:25.610Z,98206.00
2023-02-03T13:07:14.213Z,98174.00
2023-02-03T13:09:57.348Z,98207.00
2023-02-03T13:12:37.373Z,98193.00
2023-02-03T13:15:29.984Z,98206.00
2023-02-03T13:18:19.688Z,98197.00
2023-02-03T13:20:46.204Z,98202.00
2023-02-03T13:23:15.150Z,98150.00
2023-02-03T13:26:33.265Z,98211.00
2023-02-03T13:29:23.652Z,98210.00
2023-02-03T13:32:13.758Z,98192.00
2023-02-03T13:34:51.786Z,98202.00
2023-02-03T13:37:26.872Z,98221.00
2023-02-03T13:40:41.765Z,98206.00
2023-02-03T13:43:38.521Z,98203.00
2023-02-03T13:46:17.738Z,98201.00
2023-02-03T13:48:46.472Z,98202.00
2023-02-03T13:51:15.182Z,98192.00
2023-02-03T13:53:45.588Z,98178.00
2023-02-03T13:56:25.437Z,98213.00
2023-02-03T13:59:19.798Z,98199.00
2023-02-03T14:01:46.136Z,98180.00
2023-02-03T14:04:24.539Z,98192.00
2023-02-03T14:06:53.365Z,98199.00
2023-02-03T14:09:33.818Z,98193.00
2023-02-03T14:12:32.567Z,98211.00
2023-02-03T14:15:17.027Z,98192.00
2023-02-03T14:17:43.198Z,98222.00
2023-02-03T14:20:24.650Z,98217.00
2023-02-03T14:23:04.294Z,98224.00
2023-02-03T14:25:37.383Z,98216.00
2023-02-03T14:28:10.355Z,98212.00
2023-02-03T14:31:18.587Z,98235.00
2023-02-03T14:34:08.032Z,98215.00
2023-02-03T14:36:53.921Z,98228.00
2023-02-03T14:39:20.430Z,98236.00
2023-02-03T14:42:01.867Z,98227.00
2023-02-03T14:44:47.729Z,98250.00
2023-02-03T14:47:47.429Z,98242.00
2023-02-03T14:50:31.127Z,98253.00
2023-02-03T14:53:16.717Z,98272.00
2023-02-03T14:56:10.370Z,98285.00
2023-02-03T14:58:54.508Z,98256.00
2023-02-03T15:01:47.524Z,98282.00
2023-02-03T15:04:13.714Z,98255.00
2023-02-03T15:06:50.124Z,98283.00
2023-02-03T15:09:42.325Z,98285.00
2023-02-03T15:12:23.245Z,98265.00
2023-02-03T15:14:49.798Z,98283.00
2023-02-03T15:17:25.584Z,98290.00
2023-02-03T15:19:52.164Z,98305.00
2023-02-03T15:22:28.082Z,98310.00
2023-02-03T15:25:04.643Z,98273.00
2023-02-03T15:27:32.660Z,98314.00
2023-02-03T15:30:14.708Z,98322.00
2023-02-03T15:32:51.456Z,98354.00
2023-02-03T15:35:19.742Z,98377.00
2023-02-03T15:37:55.606Z,98354.00
2023-02-03T15:40:29.135Z,98380.00
2023-02-03T15:43:08.047Z,98370.00
2023-02-03T15:45:54.140Z,98368.00
2023-02-03T15:48:42.301Z,98384.00
2023-02-03T15:51:33.416Z,98370.00
2023-02-03T15:54:39.810Z,98366.00
2023-02-03T15:57:13.933Z,98345.00
2023-02-03T16:00:01.019Z,98370.00
2023-02-03T16:02:33.949Z,98360.00
2023-02-03T16:05:36.381Z,98377.00
2023-02-03T16:08:36.578Z,98376.00
2023-02-03T16:11:29.420Z,98374.00
2023-02-03T16:14:02.689Z,98383.00
2023-02-03T16:17:04.352Z,98375.00
2023-02-03T16:19:37.212Z,98380.00
2023-02-03T16:22:03.503Z,98354.00
2023-02-03T16:24:32.816Z,98373.00
2023-02-03T16:27:27.072Z,98380.00
2023-02-03T16:30:38.294Z,98395.00
2023-02-03T16:33:31.433Z,98390.00
2023-02-03T16:36:29.257Z,98374.00
2023-02-03T16:39:14.466Z,98371.00
2023-02-03T16:41:59.040Z,98358.00
2023-02-03T16:44:43.529Z,98359.00
2023-02-03T16:47:49.124Z,98367.00
2023-02-03T16:50:41.148Z,98368.00
2023-02-03T16:53:15.412Z,98379.00
2023-02-03T16:55:43.357Z,98382.00
2023-02-03T16:58:11.759Z,98349.00
2023-02-03T17:00:43.921Z,98372.00
2023-02-03T17:03:14.508Z,98384.00
2023-02-03T17:05:43.056Z,98386.00
2023-02-03T17:08:09.660Z,98370.00
2023-02-03T17:10:38.141Z,98383.00
2023-02-03T17:13:05.409Z,98383.00
2023-02-03T17:15:31.934Z,98399.00
2023-02-03T17:17:58.423Z,98386.00
2023-02-03T17:20:25.706Z,98367.00
2023-02-03T17:22:53.690Z,98397.00
2023-02-03T17:25:21.016Z,98368.00
2023-02-03T17:27:47.676Z,98387.00
2023-02-03T17:30:15.968Z,98386.00
2023-02-03T17:32:42.167Z,98396.00
2023-02-03T17:35:08.487Z,98400.00
2023-02-03T17:37:35.651Z,98413.00
2023-02-03T17:54:05.505Z,98415.00
2023-02-03T17:56:34.825Z,98427.00
2023-02-03T17:59:04.371Z,98437.00
2023-02-03T18:01:31.387Z,98435.00
2023-02-03T18:04:01.992Z,98430.00
2023-02-03T18:06:30.696Z,98436.00
2023-02-03T18:09:01.885Z,98434.00
2023-02-03T18:11:30.627Z,98458.00
2023-02-03T18:13:57.613Z,98446.00
2023-02-03T18:16:31.582Z,98436.00
2023-02-03T18:19:00.094Z,98453.00
2023-02-03T18:21:27.005Z,98467.00
2023-02-03T18:23:58.694Z,98455.00
2023-02-03T18:26:28.114Z,98444.00
2023-02-03T18:28:55.139Z,98461.00
2023-02-03T18:31:21.845Z,98460.00
2023-02-03T18:33:48.457Z,98461.00
2023-02-03T18:36:16.063Z,98476.00
2023-02-03T18:38:45.066Z,98484.00
2023-02-03T18:41:19.907Z,98471.00
2023-02-03T18:43:48.506Z,98488.00
2023-02-03T18:46:28.412Z,98489.00
2023-02-03T18:48:55.543Z,98489.00
2023-02-03T18:51:24.032Z,98488.00
2023-02-03T18:53:51.148Z,98495.00
2023-02-03T18:56:24.514Z,98486.00
2023-02-03T18:58:51.787Z,98503.00
2023-02-03T19:01:27.875Z,98482.00
2023-02-03T19:04:00.729Z,98497.00
2023-02-03T19:06:29.900Z,98463.00
2023-02-03T19:08:58.041Z,98491.00
2023-02-03T19:11:25.399Z,98431.00
2023-02-03T19:13:51.899Z,98508.00
2023-02-03T19:16:18.316Z,98512.00
2023-02-03T19:18:46.023Z,98519.00
2023-02-03T19:21:13.572Z,98519.00
2023-02-03T19:23:41.422Z,98530.00
2023-02-03T19:26:09.255Z,98528.00
2023-02-03T19:28:35.979Z,98550.00
2023-02-03T19:31:12.397Z,98543.00
2023-02-03T19:33:38.777Z,98519.00
2023-02-03T19:36:06.879Z,98538.00
2023-02-03T19:38:34.131Z,98539.00
2023-02-03T19:41:00.955Z,98547.00
2023-02-03T19:43:28.072Z,98528.00
2023-02-03T19:45:56.988Z,98547.00
2023-02-03T19:48:23.345Z,98547.00
2023-02-03T19:50:49.980Z,98541.00
2023-02-03T19:53:17.632Z,98554.00
2023-02-03T19:55:45.609Z,98562.00
2023-02-03T19:58:13.448Z,98558.00
2023-02-03T20:00:40.823Z,98555.00
2023-02-03T20:03:07.179Z,98569.00
2023-02-03T20:05:35.223Z,98573.00
2023-02-03T20:08:01.820Z,98557.00
2023-02-03T20:10:28.387Z,98583.00
2023-02-03T20:12:55.069Z,98570.00
2023-02-03T20:15:21.709Z,98567.00
2023-02-03T20:17:48.359Z,98578.00
2023-02-03T20:20:16.318Z,98553.00
2023-02-03T20:22:42.523Z,98562.00
2023-02-03T20:25:09.291Z,98565.00
2023-02-03T20:27:35.698Z,98571.00
2023-02-03T20:30:03.298Z,98569.00
2023-02-03T20:32:29.953Z,98580.00
2023-02-03T20:34:57.077Z,98571.00
2023-02-03T20:37:23.250Z,98588.00
2023-02-03T20:39:49.729Z,98571.00
2023-02-03T20:42:17.321Z,98586.00
2023-02-03T20:44:44.197Z,98584.00
2023-02-03T20:47:13.618Z,98564.00
2023-02-03T20:49:40.430Z,98568.00
2023-02-03T20:52:16.409Z,98568.00
2023-02-03T20:54:43.880Z,98592.00
2023-02-03T20:57:17.689Z,98604.00
2023-02-03T20:59:45.187Z,98613.00
2023-02-03T21:02:46.757Z,98627.00
2023-02-03T21:05:25.805Z,98613.00
2023-02-03T21:07:52.448Z,98620.00
2023-02-03T21:10:23.889Z,98626.00
2023-02-03T21:12:50.661Z,98637.00
2023-02-03T21:15:19.816Z,98633.00
2023-02-03T21:17:46.285Z,98621.00
2023-02-03T21:20:33.506Z,98620.00
2023-02-03T21:23:00.247Z,98637.00
2023-02-03T21:25:33.103Z,98629.00
2023-02-03T21:28:00.560Z,98636.00
2023-02-03T21:30:34.324Z,98647.00
2023-02-03T21:33:34.405Z,98652.00
2023-02-03T21:36:00.753Z,98639.00
2023-02-03T21:38:31.573Z,98652.00
2023-02-03T21:41:00.428Z,98639.00
2023-02-03T21:43:29.392Z,98653.00
2023-02-03T21:45:55.941Z,98640.00
2023-02-03T21:48:33.253Z,98660.00
2023-02-03T21:51:28.844Z,98651.00
2023-02-03T21:54:20.576Z,98668.00
2023-02-03T21:56:46.955Z,98650.00
2023-02-03T21:59:21.570Z,98649.00
2023-02-03T22:01:48.809Z,98655.00
2023-02-03T22:04:15.113Z,98647.00
2023-02-03T22:06:48.326Z,98659.00
2023-02-03T22:09:20.778Z,98664.00
2023-02-03T22:11:47.725Z,98651.00
2023-02-03T22:14:16.657Z,98665.00
2023-02-03T22:16:43.857Z,98652.00
2023-02-03T22:19:10.508Z,98656.00
2023-02-03T22:21:39.049Z,98669.00
2023-02-03T22:24:05.927Z,98674.00
2023-02-03T22:26:32.685Z,98677.00
2023-02-03T22:28:59.011Z,98668.00
2023-02-03T22:31:25.283Z,98677.00
2023-02-03T22:33:51.712Z,98678.00
2023-02-03T22:36:21.302Z,98688.00
2023-02-03T22:38:47.563Z,98681.00
2023-02-03T22:41:13.981Z,98698.00
2023-02-03T22:43:40.757Z,98688.00
2023-02-03T22:46:07.968Z,98703.00
2023-02-03T22:48:34.723Z,98678.00
2023-02-03T22:51:01.297Z,98715.00
2023-02-03T22:53:30.159Z,98724.00
2023-02-03T22:55:56.614Z,98709.00
2023-02-03T22:58:22.945Z,98709.00
2023-02-03T23:00:49.181Z,98708.00
2023-02-03T23:03:16.165Z,98727.00
2023-02-03T23:05:42.348Z,98728.00
2023-02-03T23:08:09.127Z,98741.00
2023-02-03T23:10:35.535Z,98723.00
2023-02-03T23:13:01.997Z,98720.00
2023-02-03T23:15:28.500Z,98741.00
2023-02-03T23:17:55.067Z,98744.00
2023-02-03T23:20:21.358Z,98750.00
2023-02-03T23:22:47.788Z,98759.00
2023-02-03T23:25:14.383Z,98754.00
2023-02-03T23:27:40.795Z,98770.00
2023-02-03T23:30:08.384Z,98753.00
2023-02-03T23:32:34.660Z,98762.00
2023-02-03T23:35:20.689Z,98761.00
2023-02-03T23:37:47.569Z,98774.00
2023-02-03T23:40:14.112Z,98748.00
2023-02-03T23:42:40.426Z,98775.00
2023-02-03T23:45:10.953Z,98797.00
2023-02-03T23:47:39.857Z,98770.00
2023-02-03T23:50:08.894Z,98779.00
2023-02-03T23:52:35.392Z,98797.00
2023-02-03T23:55:17.835Z,98788.00
2023-02-03T23:57:45.325Z,98787.00
